Time;durP1;ratioP1;P1;durP2;ratioP2;P2;SDS_P1;SDS_P2;PMS_P1;PMS_P2;Temp;Humidity;BMP_temperature;BMP_pressure;BME280_temperature;BME280_humidity;BME280_pressure;Samples;Min_cycle;Max_cycle;Signal;HPM_P1;HPM_P2
2023/07/26 00:01:34;;;;;;;3.20;1.38;;;;;;;;;;5042664;28;20500;-66
2023/07/26 00:04:00;;;;;;;2.70;1.48;;;;;;;;;;5043888;28;20516;-65
2023/07/26 00:06:29;;;;;;;3.97;1.67;;;;;;;;;;5034310;28;20060;-62
2023/07/26 00:08:56;;;;;;;3.75;1.67;;;;;;;;;;5036111;28;20037;-65
2023/07/26 00:11:23;;;;;;;1.70;1.52;;;;;;;;;;5044438;28;20113;-67
2023/07/26 00:13:49;;;;;;;1.60;1.50;;;;;;;;;;5043672;28;20062;-65
2023/07/26 00:16:16;;;;;;;2.58;1.63;;;;;;;;;;5042620;28;20053;-66
2023/07/26 00:18:42;;;;;;;2.33;1.48;;;;;;;;;;5042013;28;20065;-64
2023/07/26 00:21:08;;;;;;;3.78;1.80;;;;;;;;;;5043310;28;20057;-64
2023/07/26 00:23:35;;;;;;;2.60;1.90;;;;;;;;;;5042253;28;20130;-66
2023/07/26 00:26:02;;;;;;;3.90;1.92;;;;;;;;;;5043274;28;20463;-65
2023/07/26 00:28:29;;;;;;;2.97;1.80;;;;;;;;;;5042444;28;20053;-63
2023/07/26 00:30:55;;;;;;;4.20;1.98;;;;;;;;;;5043132;28;20606;-67
2023/07/26 00:33:22;;;;;;;3.75;1.95;;;;;;;;;;5041270;28;20053;-66
2023/07/26 00:35:48;;;;;;;4.68;2.00;;;;;;;;;;5041903;28;20523;-66
2023/07/26 00:38:14;;;;;;;3.80;1.80;;;;;;;;;;5041714;28;20124;-65
2023/07/26 00:40:41;;;;;;;4.85;1.95;;;;;;;;;;5042263;28;20132;-67
2023/07/26 00:43:07;;;;;;;2.03;1.80;;;;;;;;;;5043246;28;20112;-63
2023/07/26 00:45:36;;;;;;;2.85;1.70;;;;;;;;;;5042296;28;20227;-64
2023/07/26 00:48:03;;;;;;;2.42;1.50;;;;;;;;;;5041362;28;20057;-65
2023/07/26 00:50:29;;;;;;;2.75;2.20;;;;;;;;;;5043094;28;20049;-66
2023/07/26 00:52:56;;;;;;;3.65;1.73;;;;;;;;;;5042900;28;20164;-66
2023/07/26 00:55:22;;;;;;;3.28;1.90;;;;;;;;;;5041843;28;20554;-66
2023/07/26 00:57:49;;;;;;;2.42;1.50;;;;;;;;;;5042571;28;20488;-67
2023/07/26 01:00:16;;;;;;;3.67;1.90;;;;;;;;;;5041460;28;20058;-63
2023/07/26 01:02:43;;;;;;;2.70;2.15;;;;;;;;;;5040222;28;20046;-63
2023/07/26 01:05:10;;;;;;;3.60;1.88;;;;;;;;;;5042935;28;20578;-58
2023/07/26 01:07:45;;;;;;;6.68;2.17;;;;;;;;;;5039122;28;20056;-66
2023/07/26 01:10:22;;;;;;;2.03;1.80;;;;;;;;;;5043333;28;20420;-65
2023/07/26 01:12:55;;;;;;;3.60;1.80;;;;;;;;;;5042050;28;20148;-66
2023/07/26 01:15:30;;;;;;;2.03;1.80;;;;;;;;;;5041588;28;20626;-66
2023/07/26 01:18:26;;;;;;;3.73;1.93;;;;;;;;;;5039075;28;20095;-64
2023/07/26 01:20:52;;;;;;;4.57;1.90;;;;;;;;;;5041649;28;20633;-66
2023/07/26 01:23:18;;;;;;;3.28;2.00;;;;;;;;;;5039681;28;20472;-65
2023/07/26 01:25:45;;;;;;;1.95;1.77;;;;;;;;;;5034909;28;20049;-67
2023/07/26 01:28:11;;;;;;;3.33;2.13;;;;;;;;;;5041604;28;20053;-65
2023/07/26 01:30:38;;;;;;;2.80;2.00;;;;;;;;;;5041385;28;20132;-66
2023/07/26 01:33:06;;;;;;;3.20;2.05;;;;;;;;;;5042603;28;20056;-64
2023/07/26 01:35:34;;;;;;;2.67;1.85;;;;;;;;;;5041732;28;20046;-63
2023/07/26 01:38:01;;;;;;;3.42;1.80;;;;;;;;;;5040986;28;20136;-61
2023/07/26 01:40:27;;;;;;;2.03;1.80;;;;;;;;;;5042531;28;20053;-64
2023/07/26 01:42:55;;;;;;;3.50;2.22;;;;;;;;;;5042765;28;20526;-67
2023/07/26 01:45:21;;;;;;;5.32;2.70;;;;;;;;;;5041848;28;20176;-67
2023/07/26 01:47:49;;;;;;;5.05;2.13;;;;;;;;;;5040400;28;20057;-66
2023/07/26 01:50:16;;;;;;;2.55;2.22;;;;;;;;;;5042449;28;20099;-67
2023/07/26 01:52:42;;;;;;;3.05;2.63;;;;;;;;;;5048568;28;20053;-63
2023/07/26 01:55:08;;;;;;;2.35;2.15;;;;;;;;;;5040091;28;20045;-64
2023/07/26 01:57:35;;;;;;;5.00;3.22;;;;;;;;;;5041151;28;20053;-66
2023/07/26 02:00:01;;;;;;;3.58;2.35;;;;;;;;;;5042528;28;20081;-64
2023/07/26 02:02:28;;;;;;;3.15;2.33;;;;;;;;;;5042246;28;20137;-65
2023/07/26 02:04:54;;;;;;;5.30;3.95;;;;;;;;;;5026366;28;20058;-65
2023/07/26 02:07:21;;;;;;;3.53;2.47;;;;;;;;;;5041829;28;20512;-67
2023/07/26 02:09:47;;;;;;;6.20;2.80;;;;;;;;;;5042507;28;20073;-64
2023/07/26 02:12:14;;;;;;;4.60;2.75;;;;;;;;;;5042075;28;20533;-67
2023/07/26 02:14:40;;;;;;;3.55;2.63;;;;;;;;;;5041659;28;20065;-67
2023/07/26 02:17:07;;;;;;;2.90;2.60;;;;;;;;;;5041498;28;20060;-64
2023/07/26 02:19:33;;;;;;;3.30;3.00;;;;;;;;;;5041671;28;20573;-63
2023/07/26 02:22:00;;;;;;;3.70;2.55;;;;;;;;;;5030092;28;20443;-66
2023/07/26 02:24:27;;;;;;;3.53;2.65;;;;;;;;;;5039143;28;20107;-63
2023/07/26 02:26:53;;;;;;;5.70;3.78;;;;;;;;;;5041917;28;20104;-64
2023/07/26 02:29:20;;;;;;;3.38;2.40;;;;;;;;;;5043254;28;20464;-66
2023/07/26 02:31:46;;;;;;;6.43;3.25;;;;;;;;;;5040874;28;20053;-66
2023/07/26 02:34:13;;;;;;;2.90;2.33;;;;;;;;;;5043202;28;20522;-67
2023/07/26 02:36:39;;;;;;;5.07;2.50;;;;;;;;;;5043273;28;20143;-62
2023/07/26 02:39:06;;;;;;;2.92;2.40;;;;;;;;;;5044139;28;20084;-66
2023/07/26 02:41:33;;;;;;;4.95;2.50;;;;;;;;;;5045241;28;20045;-65
2023/07/26 02:44:00;;;;;;;4.80;2.53;;;;;;;;;;5043629;28;20061;-66
2023/07/26 02:46:26;;;;;;;3.70;2.90;;;;;;;;;;5044530;28;20145;-66
2023/07/26 02:48:52;;;;;;;5.55;2.42;;;;;;;;;;5044216;28;20060;-67
2023/07/26 02:51:19;;;;;;;2.67;2.45;;;;;;;;;;5044844;28;20057;-65
2023/07/26 02:53:45;;;;;;;3.38;2.70;;;;;;;;;;5043662;28;20053;-64
2023/07/26 02:56:12;;;;;;;3.33;2.58;;;;;;;;;;5044164;28;20060;-67
2023/07/26 02:58:38;;;;;;;2.70;2.25;;;;;;;;;;5045507;28;20613;-67
2023/07/26 03:01:05;;;;;;;5.70;3.17;;;;;;;;;;5043579;28;20056;-62
2023/07/26 03:03:31;;;;;;;4.97;2.65;;;;;;;;;;5045076;28;20038;-62
2023/07/26 03:05:58;;;;;;;2.75;2.28;;;;;;;;;;5058522;28;20108;-67
2023/07/26 03:08:25;;;;;;;2.80;2.35;;;;;;;;;;5036692;28;20132;-66
2023/07/26 03:10:52;;;;;;;3.65;2.65;;;;;;;;;;5037706;28;20137;-64
2023/07/26 03:13:18;;;;;;;3.28;2.92;;;;;;;;;;5050907;28;20064;-65
2023/07/26 03:15:45;;;;;;;3.10;2.72;;;;;;;;;;5046348;28;20064;-68
2023/07/26 03:18:11;;;;;;;5.90;3.30;;;;;;;;;;5044516;28;20057;-67
2023/07/26 03:20:37;;;;;;;3.92;2.72;;;;;;;;;;5046021;28;20153;-67
2023/07/26 03:23:04;;;;;;;3.72;3.05;;;;;;;;;;5045157;28;20053;-67
2023/07/26 03:25:30;;;;;;;3.38;2.88;;;;;;;;;;5034190;28;20053;-67
2023/07/26 03:27:57;;;;;;;7.38;3.83;;;;;;;;;;5025486;28;20077;-64
2023/07/26 03:30:24;;;;;;;4.13;3.50;;;;;;;;;;5042601;28;20551;-64
2023/07/26 03:32:50;;;;;;;4.35;3.22;;;;;;;;;;5045098;28;20063;-66
2023/07/26 03:35:17;;;;;;;9.73;3.90;;;;;;;;;;5045015;28;20049;-65
2023/07/26 03:37:43;;;;;;;5.90;3.50;;;;;;;;;;5045545;28;20050;-65
2023/07/26 03:40:10;;;;;;;5.28;3.58;;;;;;;;;;5044534;28;20104;-60
2023/07/26 03:42:36;;;;;;;6.80;3.67;;;;;;;;;;5046099;28;20052;-63
2023/07/26 03:45:03;;;;;;;4.38;3.63;;;;;;;;;;5043117;28;20059;-63
2023/07/26 03:47:30;;;;;;;4.07;3.65;;;;;;;;;;5033897;28;20053;-64
2023/07/26 03:49:56;;;;;;;4.72;4.05;;;;;;;;;;5045892;28;20500;-67
2023/07/26 03:52:22;;;;;;;8.00;4.00;;;;;;;;;;5044578;28;20060;-66
2023/07/26 03:54:49;;;;;;;5.18;3.40;;;;;;;;;;5045141;28;20556;-65
2023/07/26 03:57:15;;;;;;;4.78;3.67;;;;;;;;;;5044513;28;20587;-67
2023/07/26 03:59:42;;;;;;;7.78;3.55;;;;;;;;;;5045515;28;20054;-65
2023/07/26 04:02:08;;;;;;;5.38;3.40;;;;;;;;;;5041914;28;20050;-65
2023/07/26 04:04:35;;;;;;;4.28;3.38;;;;;;;;;;5045496;28;20060;-66
2023/07/26 04:07:02;;;;;;;3.80;3.30;;;;;;;;;;5045516;28;20054;-66
2023/07/26 04:09:28;;;;;;;6.20;3.80;;;;;;;;;;5044419;28;20089;-66
2023/07/26 04:11:58;;;;;;;5.88;3.38;;;;;;;;;;5039300;28;20108;-63
2023/07/26 04:14:24;;;;;;;5.47;3.85;;;;;;;;;;5043537;28;20206;-62
2023/07/26 04:16:51;;;;;;;6.35;3.50;;;;;;;;;;5040850;28;20179;-66
2023/07/26 04:19:17;;;;;;;4.28;3.28;;;;;;;;;;5043157;28;20057;-63
2023/07/26 04:21:44;;;;;;;4.45;3.42;;;;;;;;;;5044240;28;20061;-64
2023/07/26 04:24:10;;;;;;;5.18;3.80;;;;;;;;;;5043496;28;20058;-65
2023/07/26 04:26:37;;;;;;;3.75;3.35;;;;;;;;;;5037668;28;20643;-64
2023/07/26 04:29:03;;;;;;;5.63;3.78;;;;;;;;;;5042182;28;20504;-63
2023/07/26 04:31:29;;;;;;;4.93;3.35;;;;;;;;;;5026061;28;20084;-65
2023/07/26 04:33:56;;;;;;;5.05;3.33;;;;;;;;;;5042352;28;20056;-63
2023/07/26 04:36:22;;;;;;;5.15;3.35;;;;;;;;;;5041763;28;20050;-65
2023/07/26 04:38:49;;;;;;;4.05;3.65;;;;;;;;;;5042252;28;20151;-66
2023/07/26 04:41:15;;;;;;;5.40;3.50;;;;;;;;;;5042218;28;20073;-66
2023/07/26 04:43:42;;;;;;;5.13;4.32;;;;;;;;;;5041621;28;20050;-65
2023/07/26 04:46:08;;;;;;;7.25;4.50;;;;;;;;;;5040486;28;20532;-62
2023/07/26 04:48:35;;;;;;;5.15;3.70;;;;;;;;;;5042464;28;20132;-65
2023/07/26 04:51:01;;;;;;;6.03;4.13;;;;;;;;;;5041484;28;20057;-63
2023/07/26 04:53:28;;;;;;;6.50;4.63;;;;;;;;;;5040720;28;20049;-66
2023/07/26 04:55:55;;;;;;;6.40;4.57;;;;;;;;;;5038558;28;20586;-66
2023/07/26 04:58:21;;;;;;;5.95;4.13;;;;;;;;;;5037074;28;20111;-66
2023/07/26 05:00:48;;;;;;;7.60;4.25;;;;;;;;;;5039028;28;20054;-62
2023/07/26 05:03:14;;;;;;;5.38;4.22;;;;;;;;;;5043214;28;20351;-66
2023/07/26 05:05:41;;;;;;;6.47;4.65;;;;;;;;;;5038031;28;20049;-66
2023/07/26 05:08:08;;;;;;;6.70;4.25;;;;;;;;;;5038229;28;20127;-64
2023/07/26 05:10:35;;;;;;;5.65;4.60;;;;;;;;;;5035913;28;20042;-65
2023/07/26 05:13:02;;;;;;;5.18;4.18;;;;;;;;;;5036870;28;20076;-61
2023/07/26 05:15:29;;;;;;;6.95;4.28;;;;;;;;;;5042145;28;20057;-65
2023/07/26 05:17:55;;;;;;;6.85;4.28;;;;;;;;;;5042001;28;20523;-64
2023/07/26 05:20:22;;;;;;;7.43;4.88;;;;;;;;;;5042639;28;20050;-66
2023/07/26 05:22:48;;;;;;;5.82;4.10;;;;;;;;;;5041732;28;20143;-66
2023/07/26 05:25:14;;;;;;;5.32;4.80;;;;;;;;;;5042633;28;20684;-67
2023/07/26 05:27:41;;;;;;;6.90;4.32;;;;;;;;;;5041004;28;20159;-65
2023/07/26 05:30:07;;;;;;;6.95;4.22;;;;;;;;;;5036755;28;20073;-60
2023/07/26 05:32:34;;;;;;;7.20;3.95;;;;;;;;;;5026016;28;20050;-67
2023/07/26 05:35:02;;;;;;;7.18;4.00;;;;;;;;;;5033162;28;20060;-65
2023/07/26 05:37:34;;;;;;;6.30;4.15;;;;;;;;;;5042891;28;20049;-67
2023/07/26 05:40:00;;;;;;;6.75;3.85;;;;;;;;;;5044188;28;20054;-64
2023/07/26 05:42:27;;;;;;;6.13;4.68;;;;;;;;;;5033844;28;20592;-63
2023/07/26 05:44:53;;;;;;;7.50;4.38;;;;;;;;;;5039493;28;20057;-66
2023/07/26 05:47:20;;;;;;;5.07;3.92;;;;;;;;;;5037745;28;20144;-64
2023/07/26 05:49:46;;;;;;;5.20;3.10;;;;;;;;;;5040430;28;20057;-62
2023/07/26 05:52:13;;;;;;;4.63;3.67;;;;;;;;;;5032221;28;20057;-65
2023/07/26 05:54:39;;;;;;;4.93;4.18;;;;;;;;;;5032405;28;20192;-63
2023/07/26 05:57:06;;;;;;;7.93;4.72;;;;;;;;;;5038699;28;20135;-65
2023/07/26 05:59:32;;;;;;;6.28;4.25;;;;;;;;;;5040902;28;20045;-61
2023/07/26 06:02:00;;;;;;;7.22;4.35;;;;;;;;;;5038496;28;20056;-66
2023/07/26 06:04:28;;;;;;;7.97;4.20;;;;;;;;;;5041002;28;20541;-65
2023/07/26 06:06:55;;;;;;;8.00;4.53;;;;;;;;;;5042303;28;20097;-67
2023/07/26 06:09:22;;;;;;;6.13;4.75;;;;;;;;;;5039662;28;20061;-63
2023/07/26 06:11:48;;;;;;;5.88;4.22;;;;;;;;;;5048286;28;20143;-66
2023/07/26 06:14:24;;;;;;;9.43;5.50;;;;;;;;;;5041245;28;20084;-67
2023/07/26 06:16:51;;;;;;;7.45;5.30;;;;;;;;;;5032163;28;20114;-63
2023/07/26 06:19:18;;;;;;;8.88;5.50;;;;;;;;;;5043169;28;20100;-65
2023/07/26 06:21:44;;;;;;;9.13;5.65;;;;;;;;;;5033738;28;20054;-67
2023/07/26 06:24:11;;;;;;;9.00;5.80;;;;;;;;;;5038315;28;20073;-66
2023/07/26 06:26:38;;;;;;;7.85;5.47;;;;;;;;;;5045213;28;20491;-66
2023/07/26 06:29:05;;;;;;;9.50;5.63;;;;;;;;;;5045523;28;20057;-63
2023/07/26 06:31:31;;;;;;;11.00;6.22;;;;;;;;;;5045518;28;20085;-64
2023/07/26 06:33:58;;;;;;;9.07;6.30;;;;;;;;;;5044890;28;20053;-66
2023/07/26 06:36:25;;;;;;;9.52;6.25;;;;;;;;;;5034639;28;20093;-65
2023/07/26 06:38:51;;;;;;;8.20;6.18;;;;;;;;;;5045629;28;20053;-64
2023/07/26 06:41:17;;;;;;;9.90;6.32;;;;;;;;;;5043731;28;20061;-66
2023/07/26 06:43:44;;;;;;;10.77;6.65;;;;;;;;;;5053306;28;20200;-65
2023/07/26 06:46:10;;;;;;;7.70;6.00;;;;;;;;;;5034462;28;20046;-65
2023/07/26 06:48:37;;;;;;;10.90;6.40;;;;;;;;;;5044028;28;20519;-65
2023/07/26 06:51:04;;;;;;;10.48;6.47;;;;;;;;;;5035146;28;20435;-60
2023/07/26 06:53:31;;;;;;;9.98;6.57;;;;;;;;;;5037903;28;20049;-66
2023/07/26 06:55:58;;;;;;;7.40;5.75;;;;;;;;;;5044223;28;20448;-62
2023/07/26 06:58:25;;;;;;;5.40;4.25;;;;;;;;;;5039046;28;20054;-63
2023/07/26 07:00:52;;;;;;;3.85;3.38;;;;;;;;;;5038072;28;20053;-66
2023/07/26 07:03:18;;;;;;;4.07;2.90;;;;;;;;;;5031141;28;20053;-66
2023/07/26 07:05:45;;;;;;;3.80;2.53;;;;;;;;;;5040498;28;20436;-66
2023/07/26 07:08:11;;;;;;;5.22;3.05;;;;;;;;;;5042286;28;20057;-63
2023/07/26 07:10:38;;;;;;;3.85;2.42;;;;;;;;;;5040523;28;20057;-65
2023/07/26 07:13:04;;;;;;;3.55;2.72;;;;;;;;;;5046822;28;20071;-66
2023/07/26 07:15:30;;;;;;;3.58;2.03;;;;;;;;;;5045910;28;20068;-61
2023/07/26 07:17:57;;;;;;;1.92;1.73;;;;;;;;;;5039843;28;20061;-66
2023/07/26 07:20:40;;;;;;;3.00;1.75;;;;;;;;;;5049709;28;20053;-62
2023/07/26 07:23:08;;;;;;;2.25;1.75;;;;;;;;;;5050245;28;20049;-63
2023/07/26 07:25:38;;;;;;;2.50;1.67;;;;;;;;;;5043915;28;20057;-63
2023/07/26 07:28:05;;;;;;;3.92;2.17;;;;;;;;;;5040479;28;20058;-62
2023/07/26 07:30:32;;;;;;;2.25;1.85;;;;;;;;;;5056110;28;20049;-66
2023/07/26 07:32:58;;;;;;;4.03;2.00;;;;;;;;;;5043721;28;20140;-64
2023/07/26 07:35:25;;;;;;;2.03;1.77;;;;;;;;;;5043849;28;20053;-63
2023/07/26 07:37:51;;;;;;;4.93;2.53;;;;;;;;;;5043145;28;20057;-63
2023/07/26 07:40:18;;;;;;;3.95;2.38;;;;;;;;;;5044764;28;20123;-66
2023/07/26 07:42:44;;;;;;;3.42;1.90;;;;;;;;;;5038058;28;20514;-65
2023/07/26 07:45:11;;;;;;;1.90;1.48;;;;;;;;;;5038692;28;20049;-63
2023/07/26 07:47:38;;;;;;;2.78;1.77;;;;;;;;;;5045396;28;20084;-67
2023/07/26 07:50:05;;;;;;;2.17;1.65;;;;;;;;;;5041348;28;20049;-66
2023/07/26 07:52:32;;;;;;;1.67;1.58;;;;;;;;;;5037650;28;20144;-65
2023/07/26 07:54:58;;;;;;;3.55;1.70;;;;;;;;;;5036943;28;20061;-66
2023/07/26 07:57:25;;;;;;;5.78;1.75;;;;;;;;;;5038424;28;20053;-62
2023/07/26 07:59:51;;;;;;;1.73;1.60;;;;;;;;;;5038934;28;20547;-65
2023/07/26 08:02:21;;;;;;;1.75;1.50;;;;;;;;;;5038402;28;20049;-66
2023/07/26 08:04:48;;;;;;;2.05;1.85;;;;;;;;;;5038013;28;22100;-65
2023/07/26 08:07:14;;;;;;;2.90;1.80;;;;;;;;;;5037745;28;20049;-64
2023/07/26 08:09:41;;;;;;;2.10;1.67;;;;;;;;;;5041893;28;20107;-63
2023/07/26 08:12:07;;;;;;;2.22;1.42;;;;;;;;;;5052235;28;20057;-62
2023/07/26 08:14:34;;;;;;;2.72;2.05;;;;;;;;;;5039104;28;20061;-62
2023/07/26 08:17:01;;;;;;;2.75;2.40;;;;;;;;;;5037341;28;20057;-63
2023/07/26 08:19:27;;;;;;;3.85;2.65;;;;;;;;;;5039409;28;20069;-66
2023/07/26 08:21:55;;;;;;;3.10;2.67;;;;;;;;;;5044917;28;20061;-67
2023/07/26 08:24:22;;;;;;;6.80;3.15;;;;;;;;;;5041861;28;20054;-67
2023/07/26 08:26:49;;;;;;;2.80;2.38;;;;;;;;;;5038311;28;20973;-65
2023/07/26 08:29:16;;;;;;;5.25;3.10;;;;;;;;;;5043477;28;20100;-65
2023/07/26 08:31:42;;;;;;;4.13;2.90;;;;;;;;;;5040655;28;20049;-63
2023/07/26 08:34:09;;;;;;;7.18;3.28;;;;;;;;;;5041448;28;20123;-66
2023/07/26 08:36:35;;;;;;;3.47;2.67;;;;;;;;;;5041610;28;20504;-65
2023/07/26 08:39:02;;;;;;;3.28;2.40;;;;;;;;;;5036735;28;20045;-63
2023/07/26 08:41:29;;;;;;;6.95;2.90;;;;;;;;;;5042863;28;20048;-68
2023/07/26 08:43:58;;;;;;;2.65;2.38;;;;;;;;;;5041841;28;20552;-67
2023/07/26 08:46:25;;;;;;;3.78;2.83;;;;;;;;;;5036653;28;20095;-62
2023/07/26 08:48:52;;;;;;;4.28;2.60;;;;;;;;;;5038908;28;20551;-65
2023/07/26 08:51:21;;;;;;;7.07;2.80;;;;;;;;;;5038427;28;20042;-62
2023/07/26 08:53:49;;;;;;;3.45;2.85;;;;;;;;;;5038488;28;20115;-67
2023/07/26 08:56:15;;;;;;;6.50;2.97;;;;;;;;;;5038423;28;20049;-67
2023/07/26 08:58:42;;;;;;;4.05;2.85;;;;;;;;;;5037340;28;20105;-67
2023/07/26 09:01:09;;;;;;;6.57;2.80;;;;;;;;;;5038232;28;20060;-65
2023/07/26 09:03:35;;;;;;;5.30;2.92;;;;;;;;;;5048526;28;20057;-63
2023/07/26 09:06:06;;;;;;;4.65;3.03;;;;;;;;;;5041486;28;20045;-66
2023/07/26 09:08:32;;;;;;;5.18;3.00;;;;;;;;;;5041784;28;20085;-66
2023/07/26 09:11:01;;;;;;;6.07;2.88;;;;;;;;;;5042559;28;20065;-66
2023/07/26 09:13:27;;;;;;;5.25;2.70;;;;;;;;;;5040463;28;20140;-67
2023/07/26 09:15:54;;;;;;;4.63;2.63;;;;;;;;;;5041861;28;20349;-66
2023/07/26 09:18:20;;;;;;;7.38;2.50;;;;;;;;;;5042347;28;20049;-64
2023/07/26 09:20:47;;;;;;;8.60;2.95;;;;;;;;;;5042227;28;20107;-62
2023/07/26 09:23:14;;;;;;;4.40;2.75;;;;;;;;;;5041040;28;20049;-66
2023/07/26 09:25:44;;;;;;;5.30;2.80;;;;;;;;;;5042411;28;20132;-63
2023/07/26 09:28:11;;;;;;;6.82;2.80;;;;;;;;;;5041361;28;20104;-65
2023/07/26 09:30:40;;;;;;;7.60;3.33;;;;;;;;;;5046227;28;20142;-66
2023/07/26 09:33:07;;;;;;;5.32;2.55;;;;;;;;;;5042757;28;20053;-66
2023/07/26 09:35:44;;;;;;;8.88;3.25;;;;;;;;;;5042362;28;20061;-65
2023/07/26 09:38:11;;;;;;;5.07;2.42;;;;;;;;;;5049562;28;20053;-58
2023/07/26 09:40:38;;;;;;;5.35;2.28;;;;;;;;;;5057192;28;20056;-64
2023/07/26 09:43:05;;;;;;;3.35;2.00;;;;;;;;;;5042145;28;20061;-64
2023/07/26 09:45:32;;;;;;;6.43;1.95;;;;;;;;;;5041099;28;20058;-64
2023/07/26 09:48:09;;;;;;;2.45;1.83;;;;;;;;;;5041712;28;20143;-64
2023/07/26 09:50:40;;;;;;;5.38;1.98;;;;;;;;;;5039367;28;20091;-65
2023/07/26 09:53:07;;;;;;;4.68;2.38;;;;;;;;;;5042089;28;20057;-62
2023/07/26 09:55:34;;;;;;;2.60;2.28;;;;;;;;;;5055029;28;20084;-65
2023/07/26 09:58:01;;;;;;;4.20;2.50;;;;;;;;;;5040936;28;20437;-64
2023/07/26 10:00:28;;;;;;;4.88;2.63;;;;;;;;;;5036856;28;20504;-64
2023/07/26 10:02:58;;;;;;;3.25;2.40;;;;;;;;;;5042961;28;20053;-64
2023/07/26 10:05:25;;;;;;;5.70;2.97;;;;;;;;;;5040847;28;20508;-63
2023/07/26 10:07:52;;;;;;;5.57;2.85;;;;;;;;;;5038811;28;20065;-61
2023/07/26 10:10:21;;;;;;;6.10;2.67;;;;;;;;;;5036459;28;20457;-62
2023/07/26 10:12:50;;;;;;;4.38;3.00;;;;;;;;;;5042060;28;20065;-62
2023/07/26 10:15:19;;;;;;;7.28;3.53;;;;;;;;;;5044444;28;20148;-60
2023/07/26 10:17:49;;;;;;;5.55;2.85;;;;;;;;;;5025429;28;20140;-62
2023/07/26 10:20:15;;;;;;;6.10;2.92;;;;;;;;;;5046390;28;20172;-63
2023/07/26 10:22:42;;;;;;;8.93;3.08;;;;;;;;;;5042208;28;20159;-61
2023/07/26 10:25:09;;;;;;;6.95;2.85;;;;;;;;;;5041023;28;20053;-65
2023/07/26 10:27:37;;;;;;;5.40;2.88;;;;;;;;;;5038371;28;20108;-65
2023/07/26 10:30:05;;;;;;;4.32;2.60;;;;;;;;;;5040762;28;20092;-60
2023/07/26 10:32:31;;;;;;;4.18;2.40;;;;;;;;;;5041992;28;20593;-62
2023/07/26 10:34:58;;;;;;;3.50;2.22;;;;;;;;;;5041800;28;20185;-63
2023/07/26 10:37:31;;;;;;;6.72;2.75;;;;;;;;;;5041325;28;20566;-61
2023/07/26 10:39:58;;;;;;;6.13;2.50;;;;;;;;;;5040964;28;20500;-64
2023/07/26 10:42:25;;;;;;;5.88;2.20;;;;;;;;;;5039437;28;20556;-60
2023/07/26 10:44:53;;;;;;;4.85;2.20;;;;;;;;;;5039444;28;20574;-59
2023/07/26 10:47:19;;;;;;;4.65;2.17;;;;;;;;;;5041271;28;20053;-59
2023/07/26 10:49:47;;;;;;;3.25;2.10;;;;;;;;;;5048540;28;20056;-60
2023/07/26 10:52:14;;;;;;;3.65;2.25;;;;;;;;;;5058909;28;20159;-60
2023/07/26 10:54:45;;;;;;;4.55;2.33;;;;;;;;;;5039396;28;20651;-58
2023/07/26 10:57:17;;;;;;;4.13;2.03;;;;;;;;;;5045665;28;20057;-61
2023/07/26 11:00:04;;;;;;;3.83;1.90;;;;;;;;;;5044672;28;20092;-63
2023/07/26 11:02:34;;;;;;;2.35;1.77;;;;;;;;;;5044881;28;20140;-64
2023/07/26 11:05:06;;;;;;;3.20;1.50;;;;;;;;;;5037553;28;20460;-62
2023/07/26 11:07:51;;;;;;;3.45;1.92;;;;;;;;;;5041680;28;20057;-59
2023/07/26 11:10:19;;;;;;;4.43;2.03;;;;;;;;;;5044055;28;20085;-65
2023/07/26 11:12:47;;;;;;;5.78;2.42;;;;;;;;;;5044140;28;20061;-65
2023/07/26 11:15:14;;;;;;;6.80;3.20;;;;;;;;;;5043773;28;20317;-65
2023/07/26 11:18:01;;;;;;;3.15;1.88;;;;;;;;;;5039021;28;20057;-63
2023/07/26 11:20:27;;;;;;;4.95;2.47;;;;;;;;;;5040325;28;20128;-63
2023/07/26 11:22:54;;;;;;;4.57;1.95;;;;;;;;;;5041841;28;20053;-65
2023/07/26 11:25:20;;;;;;;4.38;1.85;;;;;;;;;;5044613;28;20500;-64
2023/07/26 11:27:48;;;;;;;4.63;2.10;;;;;;;;;;5048886;28;20049;-56
2023/07/26 11:30:18;;;;;;;3.67;2.25;;;;;;;;;;5044322;28;20084;-60
2023/07/26 11:32:45;;;;;;;3.20;2.10;;;;;;;;;;5042839;28;20137;-64
2023/07/26 11:35:12;;;;;;;3.25;1.77;;;;;;;;;;5043363;28;20573;-62
2023/07/26 11:37:48;;;;;;;3.55;1.95;;;;;;;;;;5035566;28;20049;-61
2023/07/26 11:40:15;;;;;;;4.10;1.90;;;;;;;;;;5041677;28;20049;-66
2023/07/26 11:42:42;;;;;;;3.65;2.00;;;;;;;;;;5041793;28;20690;-61
2023/07/26 11:45:09;;;;;;;3.70;2.20;;;;;;;;;;5041130;28;20053;-58
2023/07/26 11:47:36;;;;;;;4.80;2.17;;;;;;;;;;5042327;28;20544;-63
2023/07/26 11:50:03;;;;;;;4.50;1.85;;;;;;;;;;5040538;28;20111;-61
2023/07/26 11:52:30;;;;;;;4.57;2.38;;;;;;;;;;5042446;28;20049;-59
2023/07/26 11:54:58;;;;;;;5.95;2.60;;;;;;;;;;5042961;28;20053;-65
2023/07/26 11:57:27;;;;;;;4.85;2.20;;;;;;;;;;5043005;28;20053;-62
2023/07/26 11:59:55;;;;;;;6.72;2.50;;;;;;;;;;5050374;28;20045;-65
2023/07/26 12:02:24;;;;;;;4.68;2.38;;;;;;;;;;5043069;28;20057;-64
2023/07/26 12:05:09;;;;;;;4.22;2.28;;;;;;;;;;5042141;28;20057;-65
2023/07/26 12:07:38;;;;;;;6.10;2.72;;;;;;;;;;5042129;28;20468;-65
2023/07/26 12:10:05;;;;;;;3.92;2.60;;;;;;;;;;5050707;28;20053;-64
2023/07/26 12:12:38;;;;;;;5.72;2.67;;;;;;;;;;5042033;28;20596;-65
2023/07/26 12:15:07;;;;;;;13.80;2.72;;;;;;;;;;5042537;28;20081;-63
2023/07/26 12:17:33;;;;;;;5.63;2.60;;;;;;;;;;5026038;28;20061;-63
2023/07/26 12:20:04;;;;;;;4.57;2.00;;;;;;;;;;5040839;28;20061;-62
2023/07/26 12:22:49;;;;;;;3.58;2.13;;;;;;;;;;5042879;28;20049;-65
2023/07/26 12:25:16;;;;;;;2.80;2.03;;;;;;;;;;5041869;28;20077;-66
2023/07/26 12:27:42;;;;;;;3.03;2.22;;;;;;;;;;5040299;28;20049;-65
2023/07/26 12:30:12;;;;;;;5.68;2.40;;;;;;;;;;5040531;28;20050;-58
2023/07/26 12:32:39;;;;;;;4.25;2.03;;;;;;;;;;5041350;28;20053;-65
2023/07/26 12:35:18;;;;;;;3.45;2.08;;;;;;;;;;5041685;28;20770;-62
2023/07/26 12:37:45;;;;;;;5.28;3.13;;;;;;;;;;5041918;28;20406;-61
2023/07/26 12:40:11;;;;;;;3.15;1.77;;;;;;;;;;5047763;28;20064;-65
2023/07/26 12:42:38;;;;;;;5.25;2.00;;;;;;;;;;5039938;28;20060;-61
2023/07/26 12:45:04;;;;;;;3.33;2.08;;;;;;;;;;5048393;28;20154;-65
2023/07/26 12:47:31;;;;;;;5.10;2.20;;;;;;;;;;5042430;28;20523;-64
2023/07/26 12:49:58;;;;;;;3.80;1.95;;;;;;;;;;5047132;28;20060;-64
2023/07/26 12:52:24;;;;;;;2.75;2.10;;;;;;;;;;5039743;28;20053;-62
2023/07/26 12:54:51;;;;;;;4.20;2.17;;;;;;;;;;5045416;28;20462;-64
2023/07/26 12:57:17;;;;;;;3.97;1.80;;;;;;;;;;5041221;28;20490;-65
2023/07/26 12:59:44;;;;;;;2.63;1.55;;;;;;;;;;5042293;28;20052;-65
2023/07/26 13:02:13;;;;;;;2.17;1.65;;;;;;;;;;5034755;28;20061;-64
2023/07/26 13:04:40;;;;;;;5.30;1.80;;;;;;;;;;5042131;28;20489;-66
2023/07/26 13:07:06;;;;;;;3.60;2.15;;;;;;;;;;5041116;28;20049;-65
2023/07/26 13:09:33;;;;;;;3.33;1.55;;;;;;;;;;5040078;28;20144;-60
2023/07/26 13:11:59;;;;;;;2.65;1.83;;;;;;;;;;5038192;28;20058;-64
2023/07/26 13:14:26;;;;;;;2.58;1.55;;;;;;;;;;5044835;28;20057;-64
2023/07/26 13:16:52;;;;;;;2.60;1.95;;;;;;;;;;5048144;28;20088;-58
2023/07/26 13:19:19;;;;;;;2.55;1.90;;;;;;;;;;5040974;28;20622;-65
2023/07/26 13:21:45;;;;;;;3.65;1.55;;;;;;;;;;5040217;28;20058;-64
2023/07/26 13:24:14;;;;;;;3.83;1.70;;;;;;;;;;5042179;28;20057;-61
2023/07/26 13:26:41;;;;;;;3.58;2.00;;;;;;;;;;5040724;28;20165;-65
2023/07/26 13:29:07;;;;;;;3.53;1.70;;;;;;;;;;5034696;28;20512;-65
2023/07/26 13:31:34;;;;;;;2.50;1.65;;;;;;;;;;5034953;28;20455;-62
2023/07/26 13:34:00;;;;;;;3.45;1.80;;;;;;;;;;5032046;28;20077;-65
2023/07/26 13:36:26;;;;;;;2.45;1.67;;;;;;;;;;5040819;28;20111;-66
2023/07/26 13:38:53;;;;;;;3.08;1.88;;;;;;;;;;5029413;28;20065;-63
2023/07/26 13:41:20;;;;;;;4.25;2.25;;;;;;;;;;5036909;28;20562;-64
2023/07/26 13:43:46;;;;;;;5.28;1.83;;;;;;;;;;5040795;28;20056;-66
2023/07/26 13:46:13;;;;;;;2.60;1.75;;;;;;;;;;5037565;28;20441;-66
2023/07/26 13:48:42;;;;;;;2.90;2.15;;;;;;;;;;5039581;28;20485;-62
2023/07/26 13:51:09;;;;;;;2.65;1.80;;;;;;;;;;5041329;28;20627;-67
2023/07/26 13:53:35;;;;;;;2.70;1.45;;;;;;;;;;5040215;28;20151;-67
2023/07/26 13:56:02;;;;;;;3.00;1.85;;;;;;;;;;5040331;28;20973;-65
2023/07/26 13:58:29;;;;;;;2.20;1.90;;;;;;;;;;5038897;28;20622;-63
2023/07/26 14:00:56;;;;;;;3.70;2.20;;;;;;;;;;5033345;28;20143;-66
2023/07/26 14:03:22;;;;;;;5.25;1.90;;;;;;;;;;5039530;28;20145;-65
2023/07/26 14:05:48;;;;;;;6.55;1.95;;;;;;;;;;5039488;28;20104;-69
2023/07/26 14:08:15;;;;;;;2.55;1.90;;;;;;;;;;5040350;28;20334;-64
2023/07/26 14:10:41;;;;;;;1.67;1.48;;;;;;;;;;5023142;28;20080;-61
2023/07/26 14:13:08;;;;;;;4.03;2.45;;;;;;;;;;5032944;28;20046;-67
2023/07/26 14:15:35;;;;;;;4.10;2.63;;;;;;;;;;5030198;28;20054;-67
2023/07/26 14:18:02;;;;;;;3.83;1.80;;;;;;;;;;5033608;28;20054;-66
2023/07/26 14:20:32;;;;;;;3.58;2.03;;;;;;;;;;5033913;28;20843;-68
2023/07/26 14:22:59;;;;;;;2.60;1.63;;;;;;;;;;5035471;28;20057;-70
2023/07/26 14:25:25;;;;;;;5.53;1.85;;;;;;;;;;5038615;28;20049;-67
2023/07/26 14:27:51;;;;;;;2.00;1.50;;;;;;;;;;5034981;28;20599;-63
2023/07/26 14:30:18;;;;;;;2.42;1.77;;;;;;;;;;5022168;28;20054;-69
2023/07/26 14:32:44;;;;;;;3.22;2.00;;;;;;;;;;5047932;28;20054;-69
2023/07/26 14:35:11;;;;;;;2.22;1.58;;;;;;;;;;5040614;28;20535;-68
2023/07/26 14:37:37;;;;;;;2.72;1.67;;;;;;;;;;5041458;28;20049;-70
2023/07/26 14:40:04;;;;;;;1.67;1.42;;;;;;;;;;5045558;28;20576;-63
2023/07/26 14:42:31;;;;;;;4.30;1.70;;;;;;;;;;5036395;28;20060;-67
2023/07/26 14:44:57;;;;;;;2.63;1.98;;;;;;;;;;5041894;28;20053;-63